METAR v bližini

 

LJLJ - Ljubljana/Brnik, Slovenia
Oddaljenost od postaje: Z 41km
Podatki zajeti: 18/10/2018 06:00
Pretežno oblačno
Pretežno oblačno
 Veter iz smeri spremenljiv
Veter: spremenljiv 2 km/h
Temperatura: 12°C
Rosišče: 11°C
Vlažnost: 94%
Tlak: 1018 hPa
Oblačnost: Pretežno oblačno
Vidljivost: 7 km
Podrobnosti o oblakih: Rahlo oblačno 30 m
Pretežno oblačno 2591 m
2018/10/18 04:00 LJLJ 180400Z VRB01KT 7000 FEW001 BKN085 12/11 Q1018 NOSIG
LJMB - Maribor, Slovenia
Oddaljenost od postaje: SV 63km
Podatki zajeti: 18/10/2018 06:00
Meglica, Shallow, Megla, Delno oblačno
Meglica, Shallow, Megla, Delno oblačno
 Veter iz smeri calm
Veter: Tišina
Temperatura: 11°C
Rosišče: 10°C
Vlažnost: 94%
Tlak: 1018 hPa
Stanje: Meglica, Shallow, Megla
Oblačnost: Delno oblačno
Vidljivost: 2 km
2018/10/18 04:00 LJMB 180400Z 00000KT 2000 BR MIFG NSC 11/10 Q1018
 
LJPZ - Portoroz, Slovenia
Oddaljenost od postaje: JZ 130km
Podatki zajeti: 18/10/2018 06:00
Jasno
Jasno
 Veter iz smeri VJV
Veter: VJV 11 km/h
Temperatura: 15°C
Rosišče: 14°C
Vlažnost: 94%
Tlak: 1015 hPa
Stanje: Jasno
Vidljivost: večja od 10 km
2018/10/18 04:00 LJPZ 180400Z 12006KT CAVOK 15/14 Q1015
LJCE - Cerklje, Slovenia
Oddaljenost od postaje: VJV 49km
Podatki zajeti: 18/10/2018 06:00
Meglica, Delno oblačno
Meglica, Delno oblačno
 Veter iz smeri ZJZ
Veter: ZJZ 2 km/h
Temperatura: 11°C
Rosišče: 10°C
Vlažnost: 94%
Tlak: 1018 hPa
Stanje: Meglica
Oblačnost: Delno oblačno
Vidljivost: 2 km
2018/10/18 04:00 LJCE 180400Z 25001KT 2000 BR NSC 11/10 Q1018 RMK YLO
 
LDZA - Zagreb/Pleso, Croatia
Oddaljenost od postaje: VJV 96km
Podatki zajeti: 18/10/2018 06:30
Meglica, Delno oblačno
Meglica, Delno oblačno
 Veter iz smeri spremenljiv
Veter: spremenljiv 2 km/h
Temperatura: 11°C
Rosišče: 10°C
Vlažnost: 94%
Tlak: 1018 hPa
Stanje: Meglica
Oblačnost: Delno oblačno
Vidljivost: 5 km
2018/10/18 04:30 LDZA 180430Z VRB01KT 5000 BR NSC 11/10 Q1018 NOSIG
LDRI - Rijeka/Omisalj, Croatia
Oddaljenost od postaje: JJZ 109km
Podatki zajeti: 18/10/2018 06:30
Delno oblačno
Delno oblačno
 Veter iz smeri Z
Veter: Z 6 km/h
Temperatura: 17°C
Rosišče: 12°C
Vlažnost: 73%
Tlak: 1015 hPa
Oblačnost: Delno oblačno
Vidljivost: 10 km
Podrobnosti o oblakih: Rahlo oblačno 1128 m
Delno oblačno 1433 m
2018/10/18 04:30 LDRI 180430Z 26003KT 200V320 9999 FEW037 SCT047 17/12 Q1015
 
LDPL - Pula, Croatia
Oddaljenost od postaje: JJZ 164km
Podatki zajeti: 18/10/2018 06:30
Jasno
Jasno
 Veter iz smeri calm
Veter: Tišina
Temperatura: 14°C
Rosišče: 12°C
Vlažnost: 88%
Tlak: 1015 hPa
Stanje: Jasno
Vidljivost: večja od 10 km
2018/10/18 04:30 LDPL 180430Z 00000KT CAVOK 14/12 Q1015 NOSIG
LOWK - Klagenfurt(Civ/M, Austria
Oddaljenost od postaje: SZ 76km
Podatki zajeti: 18/10/2018 06:20
Meglica, Pretežno oblačno
Meglica, Pretežno oblačno
 Veter iz smeri spremenljiv
Veter: spremenljiv 2 km/h
Temperatura: 11°C
Rosišče: 10°C
Vlažnost: 94%
Tlak: 1020 hPa
Stanje: Meglica
Oblačnost: Pretežno oblačno
Vidljivost: 4 km
Podrobnosti o oblakih: Rahlo oblačno 30 m
Pretežno oblačno 91 m
Pretežno oblačno 152 m
2018/10/18 04:20 LOWK 180420Z VRB01KT 4000 BR FEW001 BKN003 BKN005 11/10 Q1020 TEMPO 5000 BKN005
 
LOWG - Graz (mil/Civ), Austria
Oddaljenost od postaje: SSV 100km
Podatki zajeti: 18/10/2018 06:20
Megla, Pretežno oblačno
Megla, Pretežno oblačno
 Veter iz smeri spremenljiv
Veter: spremenljiv 4 km/h
Temperatura: 11°C
Rosišče: 11°C
Vlažnost: 100%
Tlak: 1019 hPa
Stanje: Megla
Oblačnost: Pretežno oblačno
Vidljivost: 1 km
Podrobnosti o oblakih: Rahlo oblačno 0 m
Pretežno oblačno 30 m
2018/10/18 04:20 LOWG 180420Z AUTO VRB02KT 0550 R17/0650N R35/0400N FG FEW000 BKN001 11/11 Q1019 TEMPO 0600 SCT001
LOWZ - Zell Am See, Austria
Oddaljenost od postaje: SZ 211km
Podatki zajeti: 31/12/2016 17:00
Ni posodobljen
Jasno
Jasno
 Veter iz smeri spremenljiv
Veter: spremenljiv 4 km/h
Temperatura: -4°C
Rosišče: -7°C
Vlažnost: 80%
Tlak: 1031 hPa
Oblačnost: Jasno
2016/12/31 16:00 LOWZ 311600Z VRB02KT 50KM SKC M04/M07 Q1031
 
LOAN - Wr.neustadt East, Austria
Oddaljenost od postaje: SSV 212km
Podatki zajeti: 17/10/2018 18:00
Ni posodobljen
Pretežno oblačno
Pretežno oblačno
 Veter iz smeri calm
Veter: Tišina
Oblačnost: Pretežno oblačno
Vidljivost: 8 km
Podrobnosti o oblakih: Delno oblačno 1829 m
Pretežno oblačno 2438 m
2018/10/17 16:00 LOAN 171600Z 00000KT 8000 SCT060SC BKN080AC
LIPQ - Ronchi Legionari, Italy
Oddaljenost od postaje: JZ 35km
Podatki zajeti: 18/10/2018 06:20
Delno oblačno
Delno oblačno
 Veter iz smeri S
Veter: S 4 km/h
Temperatura: 13°C
Rosišče: 12°C
Vlažnost: 94%
Tlak: 1015 hPa
Oblačnost: Delno oblačno
Vidljivost: 9 km
2018/10/18 04:20 LIPQ 180420Z 36002KT 9000 NSC 13/12 Q1015
 
LIVT - Trieste, Italy
Oddaljenost od postaje: ZJZ 109km
Podatki zajeti: 18/10/2018 05:55
Rahlo oblačno
Rahlo oblačno
 Veter iz smeri VSV
Veter: VSV 17 km/h
Temperatura: 19°C
Rosišče: 13°C
Vlažnost: 68%
Tlak: 1014 hPa
Oblačnost: Rahlo oblačno
Vidljivost: 10 km
Podrobnosti o oblakih: Rahlo oblačno 1219 m
2018/10/18 03:55 LIVT 180355Z 06009KT 9999 FEW040 19/13 Q1014 RMK SCT SCT060 QUK / QUL / VIS MAR 15 KM VIS MIN 9999
LIVO - Tarvisio, Italy
Oddaljenost od postaje: SSZ 49km
Podatki zajeti: 17/10/2018 19:55
Ni posodobljen
Oblačno
Oblačno
 Veter iz smeri calm
Veter: Tišina
Temperatura: 10°C
Rosišče: 9°C
Vlažnost: 94%
Tlak: 1020 hPa
Oblačnost: Oblačno
Vidljivost: 10 km
Podrobnosti o oblakih: Oblačno 914 m
2018/10/17 17:55 LIVO 171755Z 00000KT 9999 OVC030 10/09 Q1020 RMK OVC VIS MIN 9999
 
LIPZ - Venezia/Tessera, Italy
Oddaljenost od postaje: ZJZ 217km
Podatki zajeti: 18/10/2018 06:20
Jasno
Jasno
 Veter iz smeri ZSZ
Veter: ZSZ 6 km/h
Temperatura: 15°C
Rosišče: 13°C
Vlažnost: 88%
Tlak: 1016 hPa
Stanje: Jasno
Vidljivost: večja od 10 km
2018/10/18 04:20 LIPZ 180420Z 29003KT 260V350 CAVOK 15/13 Q1016 NOSIG
LHSM - Balaton, Hungary
Oddaljenost od postaje: VSV 177km
Podatki zajeti: 18/10/2018 06:15
Meglica, Delno oblačno
Meglica, Delno oblačno
 Veter iz smeri SZ
Veter: SZ 4 km/h
Temperatura: 9°C
Rosišče: 9°C
Vlažnost: 100%
Tlak: 1019 hPa
Stanje: Meglica
Oblačnost: Delno oblačno
Vidljivost: 5 km
2018/10/18 04:15 LHSM 180415Z 31002KT 4500 BR NSC 09/09 Q1019